首页
METAR-TAF:

METAR-TAF

机场 :

Curtis L. Brown Jr. Field

Elizabethtown, 北卡罗来纳州, 美国

纬度: 34-36N, 经度: 078-35W, 海拔: 40米

当前天气观测

该预报发布于30分钟前的19:20 UTC
风速3节,风向西北
温度 31°C
湿度 63%
气压 1019 hPa
能見度: 16.1公里
散云层高于6000英尺
散云层高于7000英尺
散云层高于9000英尺

METAR: KEYF 251920Z AUTO 31003KT 10SM SCT060 SCT070 SCT090 31/23 A3010 RMK AO2 T03060229

时间: 15:50 (19:50 UTC)


TAF: 丢失

超过4000个机场的气象观测和天气预报(METAR&TAF报告)。

可查询的气象台以黄色和红色小点在地图上表示。

将鼠标移到小点上方,可查看气象台名称。

然后点击查看天气观测和预报。

如需切换地图:点击带黑十字的绿色按钮放大地图;点击带横线的绿色按钮缩小地图;或者点击绿色箭头查看邻近地区的地图。


METAR-TAF: